Manchester, California
Current Conditions -  °F | °C
As of 12:13 PM on Friday 21 Nov 2014 (Local Time) from KUKI Reporting Station
Overcast Overcast  
Wind Chill: 52°   Ceiling: 3500
Heat Index: 52°   Visibility: 10mi
Dew Point: 47°   Wind: 0mph
Humidity: 83%   Direction: NA
Pressure: 30.08"   Gusts: NA
Location:  38.97°N, 123.69°W
Report Text: KUKI 212013Z AUTO 00000KT 10SM FEW011 OVC035 11/08 A3008 RMK AO2 T01110083
Loading
Personal Weather Stations






























Interactive Weather Map New forecast layout! Learn more

10-Day Weather Forecast

Advertisements
Track Severe Weather on mobile